Time;durP1;ratioP1;P1;durP2;ratioP2;P2;SDS_P1;SDS_P2;PMS_P1;PMS_P2;Temp;Humidity;BMP_temperature;BMP_pressure;BME280_temperature;BME280_humidity;BME280_pressure;Samples;Min_cycle;Max_cycle;Signal;HPM_P1;HPM_P2
2023/12/08 00:00:46;;;;;;;12.02;6.00;;;6.00;99.90;;;;;;5017115;28;20061;-86
2023/12/08 00:03:12;;;;;;;10.90;5.85;;;3.90;99.90;;;;;;5011719;28;20107;-82
2023/12/08 00:05:38;;;;;;;12.80;5.75;;;;;;;;;;5035476;28;20030;-83
2023/12/08 00:08:04;;;;;;;10.38;6.07;;;;;;;;;;5041208;28;20025;-83
2023/12/08 00:10:30;;;;;;;12.00;5.68;;;4.00;99.90;;;;;;5040661;28;20021;-81
2023/12/08 00:12:56;;;;;;;10.68;6.18;;;3.80;99.90;;;;;;5044147;28;20013;-81
2023/12/08 00:15:21;;;;;;;12.57;6.00;;;4.10;99.90;;;;;;5025819;28;20533;-83
2023/12/08 00:17:47;;;;;;;12.05;5.97;;;4.30;99.90;;;;;;5039839;28;20067;-82
2023/12/08 00:20:13;;;;;;;10.77;6.07;;;5.90;99.90;;;;;;5042662;28;20025;-84
2023/12/08 00:22:38;;;;;;;11.40;6.13;;;3.80;99.90;;;;;;5042556;28;20042;-81
2023/12/08 00:25:04;;;;;;;11.15;5.60;;;4.10;99.90;;;;;;5044407;28;20034;-87
2023/12/08 00:27:30;;;;;;;8.50;5.05;;;4.10;99.90;;;;;;5040963;28;20053;-81
2023/12/08 00:29:55;;;;;;;12.02;5.47;;;4.10;99.90;;;;;;5041502;28;20117;-82
2023/12/08 00:32:21;;;;;;;11.73;5.85;;;4.00;99.90;;;;;;5039475;28;20022;-81
2023/12/08 00:34:47;;;;;;;12.15;6.05;;;;;;;;;;5026608;28;20056;-83
2023/12/08 00:37:12;;;;;;;15.50;6.88;;;4.00;99.90;;;;;;5038643;28;20056;-84
2023/12/08 00:39:39;;;;;;;12.93;5.72;;;4.00;99.90;;;;;;5041182;28;20061;-83
2023/12/08 00:42:04;;;;;;;9.73;5.55;;;4.00;99.90;;;;;;5039169;28;20037;-85
2023/12/08 00:44:30;;;;;;;12.02;5.95;;;6.10;99.90;;;;;;5021397;28;20610;-87
2023/12/08 00:46:56;;;;;;;10.00;5.70;;;5.30;99.90;;;;;;5026907;28;20055;-82
2023/12/08 00:49:21;;;;;;;10.50;5.97;;;3.90;99.90;;;;;;5042589;28;20047;-79
2023/12/08 00:51:47;;;;;;;10.55;6.10;;;3.90;99.90;;;;;;5042251;28;20025;-84
2023/12/08 00:54:14;;;;;;;11.30;5.97;;;4.00;99.90;;;;;;5026490;28;20087;-81
2023/12/08 00:56:39;;;;;;;10.68;6.40;;;3.90;99.90;;;;;;5042567;28;20052;-86
2023/12/08 00:59:08;;;;;;;10.70;6.07;;;3.90;99.90;;;;;;5008400;28;20101;-83
2023/12/08 01:01:34;;;;;;;11.18;5.78;;;3.90;99.90;;;;;;5042992;28;20037;-81
2023/12/08 01:03:59;;;;;;;11.00;6.20;;;5.30;99.90;;;;;;5045359;28;20032;-84
2023/12/08 01:06:25;;;;;;;11.15;6.05;;;3.90;99.90;;;;;;5049232;28;20025;-83
2023/12/08 01:08:50;;;;;;;10.70;6.15;;;5.30;99.90;;;;;;5044092;28;20029;-83
2023/12/08 01:11:17;;;;;;;14.18;6.53;;;4.70;99.90;;;;;;5025616;28;20097;-81
2023/12/08 01:13:42;;;;;;;12.85;6.38;;;3.90;99.90;;;;;;5027454;28;20037;-85
2023/12/08 01:16:08;;;;;;;11.52;6.55;;;3.80;99.90;;;;;;5025031;28;20025;-81
2023/12/08 01:18:34;;;;;;;13.27;7.10;;;3.90;99.90;;;;;;5044102;28;20033;-80
2023/12/08 01:20:59;;;;;;;13.77;7.10;;;4.50;99.90;;;;;;5016989;28;20083;-82
2023/12/08 01:23:25;;;;;;;11.45;6.75;;;3.80;99.90;;;;;;5042062;28;20025;-80
2023/12/08 01:25:51;;;;;;;10.68;6.30;;;7.10;99.90;;;;;;5026172;28;20051;-83
2023/12/08 01:28:17;;;;;;;13.63;6.90;;;;;;;;;;5042277;28;20036;-80
2023/12/08 01:30:43;;;;;;;10.93;5.85;;;;;;;;;;5042466;28;20025;-82
2023/12/08 01:33:09;;;;;;;11.43;5.80;;;;;;;;;;5043034;28;20048;-82
2023/12/08 01:35:35;;;;;;;13.82;6.43;;;;;;;;;;5039950;28;20044;-81
2023/12/08 01:38:01;;;;;;;12.30;6.10;;;3.80;99.90;;;;;;5039554;28;20051;-81
2023/12/08 01:40:26;;;;;;;14.20;6.75;;;3.80;99.90;;;;;;5004720;28;20034;-83
2023/12/08 01:42:52;;;;;;;16.00;7.47;;;;;;;;;;5019873;28;20100;-80
2023/12/08 01:45:18;;;;;;;14.13;6.78;;;3.80;99.90;;;;;;5041183;28;20032;-82
2023/12/08 01:47:44;;;;;;;13.90;6.45;;;;;;;;;;5027718;28;20041;-83
2023/12/08 01:50:12;;;;;;;13.30;6.55;;;3.80;99.90;;;;;;5046114;28;20034;-82
2023/12/08 01:52:39;;;;;;;14.93;6.97;;;6.30;99.90;;;;;;5040967;28;20120;-84
2023/12/08 01:55:05;;;;;;;12.38;7.35;;;;;;;;;;5047060;28;20030;-81
2023/12/08 01:57:32;;;;;;;12.77;6.72;;;4.30;99.90;;;;;;5039105;28;20037;-87
2023/12/08 01:59:59;;;;;;;17.20;7.18;;;3.70;99.90;;;;;;5047519;28;20036;-83
2023/12/08 02:02:25;;;;;;;14.68;7.28;;;6.20;99.90;;;;;;5039733;28;20028;-86
2023/12/08 02:04:56;;;;;;;15.40;7.70;;;6.10;99.90;;;;;;5040461;28;20034;-84
2023/12/08 02:07:22;;;;;;;16.73;6.93;;;6.30;99.90;;;;;;5037993;28;20026;-81
2023/12/08 02:09:47;;;;;;;11.38;6.93;;;6.30;99.90;;;;;;5042333;28;20036;-82
2023/12/08 02:12:13;;;;;;;12.85;7.05;;;5.90;99.90;;;;;;5023244;28;20052;-87
2023/12/08 02:14:39;;;;;;;12.10;6.97;;;3.60;99.90;;;;;;5042126;28;20537;-83
2023/12/08 02:17:16;;;;;;;12.95;6.40;;;4.70;99.90;;;;;;5025135;28;20029;-81
2023/12/08 02:19:42;;;;;;;11.13;6.57;;;3.80;99.90;;;;;;5038414;28;20027;-84
2023/12/08 02:22:08;;;;;;;13.05;7.38;;;;;;;;;;5026806;28;20049;-83
2023/12/08 02:24:33;;;;;;;13.60;7.15;;;3.80;99.90;;;;;;5044127;28;20319;-82
2023/12/08 02:26:59;;;;;;;13.80;7.18;;;;;;;;;;5046405;28;20247;-82
2023/12/08 02:29:25;;;;;;;12.88;6.80;;;3.80;99.90;;;;;;5040687;28;20051;-84
2023/12/08 02:32:18;;;;;;;13.63;7.10;;;3.80;99.90;;;;;;5043199;28;20648;-80
2023/12/08 02:34:45;;;;;;;13.57;6.45;;;3.80;99.90;;;;;;5041329;28;20116;-86
2023/12/08 02:37:14;;;;;;;13.07;6.97;;;3.80;99.90;;;;;;5041872;28;20033;-82
2023/12/08 02:39:40;;;;;;;12.60;6.72;;;3.80;99.90;;;;;;5040512;28;20046;-84
2023/12/08 02:42:07;;;;;;;12.07;6.63;;;3.80;99.90;;;;;;5027759;28;20029;-80
2023/12/08 02:44:32;;;;;;;12.57;6.95;;;3.60;99.90;;;;;;5041505;28;20041;-80
2023/12/08 02:46:59;;;;;;;12.93;6.57;;;3.80;99.90;;;;;;5037214;28;20098;-80
2023/12/08 02:49:25;;;;;;;14.55;7.68;;;3.80;99.90;;;;;;5018349;28;20064;-82
2023/12/08 02:51:50;;;;;;;14.05;7.40;;;6.10;99.90;;;;;;5021488;28;20029;-80
2023/12/08 02:54:16;;;;;;;16.45;6.93;;;6.60;99.90;;;;;;5031583;28;20490;-84
2023/12/08 02:56:42;;;;;;;14.10;7.18;;;;;;;;;;5040872;28;20098;-81
2023/12/08 02:59:07;;;;;;;11.30;6.70;;;;;;;;;;5020856;28;20092;-80
2023/12/08 03:01:33;;;;;;;12.32;6.60;;;4.00;99.90;;;;;;5038799;28;20033;-79
2023/12/08 03:03:59;;;;;;;13.43;6.75;;;;;;;;;;5037176;28;20394;-82
2023/12/08 03:06:25;;;;;;;12.75;7.25;;;;;;;;;;5037256;28;20037;-84
2023/12/08 03:08:51;;;;;;;13.93;6.10;;;;;;;;;;5046323;28;20056;-86
2023/12/08 03:11:16;;;;;;;13.75;6.75;;;4.10;99.90;;;;;;5050831;28;20017;-84
2023/12/08 03:13:42;;;;;;;12.27;7.10;;;4.10;99.90;;;;;;5046757;28;20040;-84
2023/12/08 03:16:08;;;;;;;13.90;6.45;;;4.10;99.90;;;;;;5030552;28;20063;-85
2023/12/08 03:18:33;;;;;;;14.32;7.05;;;4.10;99.90;;;;;;5035229;28;20096;-83
2023/12/08 03:20:59;;;;;;;12.02;6.70;;;4.10;99.90;;;;;;5043137;28;20949;-84
2023/12/08 03:23:24;;;;;;;12.57;7.07;;;4.10;99.90;;;;;;5026205;28;20034;-86
2023/12/08 03:25:50;;;;;;;13.75;7.55;;;4.20;99.90;;;;;;5044428;28;20037;-83
2023/12/08 03:28:16;;;;;;;14.90;7.90;;;;;;;;;;5011344;28;20037;-84
2023/12/08 03:30:42;;;;;;;15.45;7.72;;;4.10;99.90;;;;;;5019839;28;20029;-80
2023/12/08 03:33:08;;;;;;;14.48;8.20;;;;;;;;;;5027658;28;20116;-82
2023/12/08 03:35:33;;;;;;;14.05;7.57;;;4.10;99.90;;;;;;5042839;28;20301;-85
2023/12/08 03:37:59;;;;;;;14.40;7.78;;;4.00;99.90;;;;;;5043230;28;20493;-82
2023/12/08 03:40:24;;;;;;;12.40;6.90;;;4.00;99.90;;;;;;5022904;28;20038;-86
2023/12/08 03:42:50;;;;;;;14.68;7.75;;;4.00;99.90;;;;;;5024180;28;20041;-84
2023/12/08 03:45:16;;;;;;;15.93;8.30;;;4.50;99.90;;;;;;5026038;28;20025;-83
2023/12/08 03:47:42;;;;;;;14.32;7.35;;;;;;;;;;5042686;28;20132;-82
2023/12/08 03:50:08;;;;;;;11.90;6.80;;;4.10;99.90;;;;;;5043336;28;20120;-81
2023/12/08 03:52:33;;;;;;;17.00;8.45;;;4.10;99.90;;;;;;5032971;28;20033;-87
2023/12/08 03:54:59;;;;;;;14.30;7.97;;;3.80;99.90;;;;;;5025731;28;20025;-84
2023/12/08 03:57:24;;;;;;;16.80;8.75;;;4.90;99.90;;;;;;5043970;28;20483;-84
2023/12/08 03:59:50;;;;;;;19.00;7.70;;;4.30;99.90;;;;;;5044805;28;20087;-82
2023/12/08 04:02:16;;;;;;;15.00;8.02;;;4.30;99.90;;;;;;5047020;28;20037;-83
2023/12/08 04:04:42;;;;;;;13.43;8.02;;;4.20;99.90;;;;;;5045398;28;20124;-80
2023/12/08 04:07:07;;;;;;;15.18;8.25;;;4.10;99.90;;;;;;5046943;28;20097;-82
2023/12/08 04:09:33;;;;;;;15.60;8.05;;;4.10;99.90;;;;;;5027139;28;20182;-82
2023/12/08 04:11:58;;;;;;;15.50;7.82;;;6.00;99.90;;;;;;5045254;28;20029;-81
2023/12/08 04:14:24;;;;;;;13.68;7.50;;;3.90;99.90;;;;;;5046393;28;20037;-87
2023/12/08 04:16:53;;;;;;;14.77;7.72;;;4.70;99.90;;;;;;5041885;28;20124;-79
2023/12/08 04:19:19;;;;;;;15.65;8.48;;;;;;;;;;5042519;28;20028;-79
2023/12/08 04:21:46;;;;;;;13.52;7.38;;;;;;;;;;5043203;28;20407;-80
2023/12/08 04:24:14;;;;;;;16.30;7.85;;;;;;;;;;5040292;28;20025;-82
2023/12/08 04:26:43;;;;;;;13.13;7.25;;;4.10;99.90;;;;;;5040202;28;20029;-80
2023/12/08 04:29:09;;;;;;;14.40;6.90;;;;;;;;;;5044488;28;20018;-80
2023/12/08 04:31:35;;;;;;;13.88;7.50;;;4.20;99.90;;;;;;5022394;28;20022;-80
2023/12/08 04:34:01;;;;;;;12.75;6.95;;;4.70;99.90;;;;;;5023936;28;20032;-85
2023/12/08 04:36:27;;;;;;;16.35;8.63;;;;;;;;;;5027602;28;20029;-83
2023/12/08 04:38:52;;;;;;;13.63;7.35;;;;;;;;;;5041778;28;20037;-81
2023/12/08 04:41:18;;;;;;;13.73;7.57;;;;;;;;;;5022901;28;20060;-82
2023/12/08 04:43:44;;;;;;;15.68;7.40;;;;;;;;;;5040405;28;20041;-80
2023/12/08 04:46:10;;;;;;;12.90;7.07;;;;;;;;;;5040242;28;20021;-82
2023/12/08 04:48:36;;;;;;;15.43;7.50;;;;;;;;;;5040579;28;20059;-85
2023/12/08 04:51:04;;;;;;;15.80;8.93;;;4.30;99.90;;;;;;5047686;28;20022;-80
2023/12/08 04:53:30;;;;;;;15.32;8.00;;;;;;;;;;5040034;28;20036;-79
2023/12/08 04:55:55;;;;;;;13.75;7.97;;;4.30;99.90;;;;;;5010555;28;20394;-80
2023/12/08 04:58:21;;;;;;;16.13;7.85;;;7.20;99.90;;;;;;5040958;28;20033;-84
2023/12/08 05:00:49;;;;;;;13.05;7.55;;;4.40;99.90;;;;;;5041915;28;20073;-81
2023/12/08 05:03:15;;;;;;;15.82;8.32;;;;;;;;;;5045163;28;20048;-80
2023/12/08 05:05:41;;;;;;;14.30;7.90;;;;;;;;;;5043105;28;20033;-81
2023/12/08 05:08:07;;;;;;;14.48;7.72;;;;;;;;;;5040306;28;20085;-81
2023/12/08 05:10:33;;;;;;;15.30;7.90;;;;;;;;;;5040514;28;20050;-80
2023/12/08 05:12:59;;;;;;;15.38;7.85;;;4.40;99.90;;;;;;5041461;28;20115;-81
2023/12/08 05:15:25;;;;;;;15.10;8.20;;;4.30;99.90;;;;;;5027735;28;20029;-81
2023/12/08 05:17:50;;;;;;;15.93;9.07;;;4.30;99.90;;;;;;5040631;28;20368;-80
2023/12/08 05:20:16;;;;;;;17.35;8.57;;;4.40;99.90;;;;;;5045144;28;20060;-83
2023/12/08 05:22:42;;;;;;;15.90;8.35;;;4.30;99.90;;;;;;5041939;28;20475;-82
2023/12/08 05:25:09;;;;;;;17.92;8.50;;;4.40;99.90;;;;;;5041294;28;20095;-80
2023/12/08 05:27:34;;;;;;;20.08;9.07;;;4.40;99.90;;;;;;5005465;28;20056;-83
2023/12/08 05:30:00;;;;;;;15.85;8.35;;;4.40;99.90;;;;;;5019945;28;20029;-80
2023/12/08 05:32:26;;;;;;;19.65;10.48;;;6.60;99.90;;;;;;5040861;28;20036;-81
2023/12/08 05:34:52;;;;;;;17.13;10.15;;;4.90;99.90;;;;;;5021958;28;20422;-84
2023/12/08 05:37:17;;;;;;;19.38;9.30;;;5.50;99.90;;;;;;5024986;28;20025;-84
2023/12/08 05:39:43;;;;;;;19.98;10.50;;;4.20;99.90;;;;;;5040418;28;20040;-79
2023/12/08 05:42:09;;;;;;;19.23;10.40;;;4.30;99.90;;;;;;5025391;28;20036;-80
2023/12/08 05:44:34;;;;;;;20.73;10.20;;;5.80;99.90;;;;;;5038890;28;20032;-81
2023/12/08 05:47:00;;;;;;;21.85;10.85;;;4.30;99.90;;;;;;5043984;28;20026;-85
2023/12/08 05:49:25;;;;;;;20.90;10.55;;;4.30;99.90;;;;;;5039503;28;20132;-83
2023/12/08 05:51:52;;;;;;;23.20;11.48;;;;;;;;;;5005645;28;20119;-83
2023/12/08 05:54:17;;;;;;;22.00;10.57;;;4.30;99.90;;;;;;5041646;28;20060;-83
2023/12/08 05:56:43;;;;;;;25.67;11.60;;;3.90;99.90;;;;;;5039392;28;20033;-83
2023/12/08 05:59:08;;;;;;;22.73;11.75;;;6.90;99.90;;;;;;5041564;28;20033;-88
2023/12/08 06:01:34;;;;;;;24.17;11.80;;;5.10;99.90;;;;;;5022621;28;20549;-81
2023/12/08 06:04:00;;;;;;;22.92;11.43;;;4.30;99.90;;;;;;5045488;28;20029;-83
2023/12/08 06:06:27;;;;;;;20.15;10.45;;;4.30;99.90;;;;;;5024871;28;20108;-82
2023/12/08 06:08:53;;;;;;;21.85;11.35;;;5.30;99.90;;;;;;5020097;28;20032;-81
2023/12/08 06:11:19;;;;;;;23.40;11.77;;;6.80;99.90;;;;;;5023205;28;20013;-80
2023/12/08 06:13:44;;;;;;;23.48;10.60;;;3.00;99.90;;;;;;5035915;28;20029;-82
2023/12/08 06:16:10;;;;;;;20.00;10.52;;;4.20;99.90;;;;;;5031369;28;20040;-83
2023/12/08 06:18:36;;;;;;;21.83;11.07;;;4.20;99.90;;;;;;5026493;28;20025;-84
2023/12/08 06:21:02;;;;;;;22.75;11.30;;;5.20;99.90;;;;;;5025923;28;20048;-84
2023/12/08 06:23:27;;;;;;;22.00;11.20;;;4.10;99.90;;;;;;5026341;28;20104;-87
2023/12/08 06:25:53;;;;;;;22.02;11.02;;;6.80;99.90;;;;;;5035903;28;20104;-82
2023/12/08 06:28:18;;;;;;;19.33;10.90;;;6.70;99.90;;;;;;5034079;28;20028;-81
2023/12/08 06:30:44;;;;;;;19.92;10.93;;;4.00;99.90;;;;;;5041651;28;20032;-86
2023/12/08 06:33:09;;;;;;;21.60;12.18;;;4.00;99.90;;;;;;5020493;28;20104;-81
2023/12/08 06:35:36;;;;;;;21.77;11.60;;;6.50;99.90;;;;;;5020850;28;20150;-82
2023/12/08 06:38:02;;;;;;;21.42;11.52;;;4.00;99.90;;;;;;5039021;28;20045;-83
2023/12/08 06:40:27;;;;;;;21.60;10.23;;;4.10;99.90;;;;;;5036573;28;20033;-81
2023/12/08 06:42:53;;;;;;;22.45;11.80;;;4.20;99.90;;;;;;5019360;28;20030;-82
2023/12/08 06:45:18;;;;;;;21.85;12.48;;;5.70;99.90;;;;;;5022787;28;20117;-82
2023/12/08 06:47:44;;;;;;;22.83;11.93;;;4.30;99.90;;;;;;5021006;28;20104;-82
2023/12/08 06:50:10;;;;;;;22.52;11.63;;;4.20;99.90;;;;;;5023815;28;20452;-80
2023/12/08 06:52:35;;;;;;;22.75;12.27;;;4.30;99.90;;;;;;5037858;28;20029;-79
2023/12/08 06:55:01;;;;;;;26.30;12.23;;;4.20;99.90;;;;;;5027733;28;20033;-82
2023/12/08 06:57:27;;;;;;;23.67;11.77;;;4.30;99.90;;;;;;5037548;28;20068;-79
2023/12/08 06:59:53;;;;;;;23.52;11.68;;;4.30;99.90;;;;;;5035724;28;20032;-83
2023/12/08 07:02:18;;;;;;;27.58;12.50;;;4.30;99.90;;;;;;5019497;28;20025;-82
2023/12/08 07:04:44;;;;;;;26.80;12.77;;;4.20;99.90;;;;;;5036556;28;20471;-83
2023/12/08 07:07:10;;;;;;;27.25;13.13;;;5.80;99.90;;;;;;5016420;28;20021;-82
2023/12/08 07:09:35;;;;;;;27.60;13.73;;;5.30;99.90;;;;;;5015535;28;20036;-82
2023/12/08 07:12:01;;;;;;;27.95;13.73;;;6.30;99.90;;;;;;5032166;28;20018;-84
2023/12/08 07:14:26;;;;;;;30.77;14.38;;;5.70;99.90;;;;;;5038814;28;20025;-85
2023/12/08 07:16:52;;;;;;;30.48;13.82;;;4.40;99.90;;;;;;5040172;28;20041;-83
2023/12/08 07:19:18;;;;;;;26.48;13.40;;;5.40;99.90;;;;;;5030223;28;20033;-83
2023/12/08 07:21:44;;;;;;;29.52;13.63;;;6.60;99.90;;;;;;5020651;28;20035;-79
2023/12/08 07:24:11;;;;;;;26.35;13.70;;;4.40;99.90;;;;;;5028164;28;20034;-81
2023/12/08 07:26:36;;;;;;;30.88;15.02;;;6.80;99.90;;;;;;5024567;28;20029;-80
2023/12/08 07:29:02;;;;;;;25.90;12.75;;;5.50;99.90;;;;;;5028266;28;20395;-80
2023/12/08 07:31:28;;;;;;;25.48;13.30;;;6.20;99.90;;;;;;5044049;28;20018;-82
2023/12/08 07:33:54;;;;;;;27.13;13.10;;;6.30;99.90;;;;;;5044634;28;20044;-80
2023/12/08 07:36:19;;;;;;;24.77;12.65;;;4.50;99.90;;;;;;5025091;28;20042;-82
2023/12/08 07:38:45;;;;;;;32.10;13.00;;;5.90;99.90;;;;;;5038612;28;20033;-82
2023/12/08 07:41:11;;;;;;;27.23;13.38;;;4.50;99.90;;;;;;5029630;28;20041;-86
2023/12/08 07:43:37;;;;;;;29.55;13.00;;;4.50;99.90;;;;;;5028141;28;20029;-86
2023/12/08 07:46:03;;;;;;;26.15;12.63;;;4.60;99.90;;;;;;5044700;28;20029;-81
2023/12/08 07:48:30;;;;;;;26.45;13.05;;;3.20;99.90;;;;;;5049055;28;20026;-86
2023/12/08 07:50:56;;;;;;;26.67;13.23;;;5.10;99.90;;;;;;5030302;28;20048;-86
2023/12/08 07:53:22;;;;;;;27.45;12.68;;;6.50;99.90;;;;;;5028159;28;20053;-82
2023/12/08 07:55:48;;;;;;;28.90;17.58;;;;;;;;;;5040960;28;20513;-81
2023/12/08 07:58:14;;;;;;;29.80;15.02;;;4.80;99.90;;;;;;5049462;28;20032;-80
2023/12/08 08:00:40;;;;;;;23.08;11.82;;;4.90;99.90;;;;;;5044641;28;20038;-85
2023/12/08 08:03:06;;;;;;;28.30;13.20;;;6.30;99.90;;;;;;5027310;28;20116;-80
2023/12/08 08:05:32;;;;;;;26.75;12.38;;;3.80;99.90;;;;;;5027119;28;20068;-81
2023/12/08 08:08:02;;;;;;;23.50;12.60;;;5.10;99.90;;;;;;5029777;28;20021;-84
2023/12/08 08:10:28;;;;;;;23.27;12.60;;;4.90;99.90;;;;;;5042851;28;20026;-81
2023/12/08 08:12:54;;;;;;;22.83;12.55;;;4.80;99.90;;;;;;5030967;28;20033;-85
2023/12/08 08:15:20;;;;;;;24.83;12.70;;;4.40;99.90;;;;;;5048564;28;20029;-90
2023/12/08 08:17:45;;;;;;;24.00;12.70;;;6.60;99.90;;;;;;5051808;28;20042;-85
2023/12/08 08:20:11;;;;;;;26.77;12.70;;;4.40;99.90;;;;;;5040092;28;20012;-86
2023/12/08 08:22:37;;;;;;;24.48;13.07;;;5.10;99.90;;;;;;5033504;28;20020;-88
2023/12/08 08:25:03;;;;;;;23.98;12.30;;;5.10;99.90;;;;;;5059086;28;20037;-84
2023/12/08 08:27:29;;;;;;;21.98;13.10;;;5.10;99.90;;;;;;5051918;28;20081;-87
2023/12/08 08:29:55;;;;;;;25.10;12.90;;;6.00;99.90;;;;;;5064572;28;21605;-84
2023/12/08 08:32:22;;;;;;;27.80;13.98;;;5.10;99.90;;;;;;5053424;28;20053;-85
2023/12/08 08:34:48;;;;;;;24.13;12.63;;;5.10;99.90;;;;;;5055388;28;20022;-85
2023/12/08 08:37:15;;;;;;;25.20;13.85;;;5.90;99.90;;;;;;5056986;28;20026;-87
2023/12/08 08:39:41;;;;;;;23.17;12.20;;;4.70;99.90;;;;;;5021538;28;20028;-82
2023/12/08 08:42:07;;;;;;;29.25;13.73;;;4.10;99.90;;;;;;5047867;28;20051;-81
2023/12/08 08:44:34;;;;;;;25.45;13.32;;;5.20;99.90;;;;;;5037320;28;20108;-87
2023/12/08 08:47:00;;;;;;;27.55;13.63;;;5.90;99.90;;;;;;5048020;28;20033;-85
2023/12/08 08:49:25;;;;;;;24.60;12.75;;;5.00;99.90;;;;;;5041942;28;20037;-81
2023/12/08 08:51:51;;;;;;;27.42;13.38;;;6.80;99.90;;;;;;5049618;28;20040;-82
2023/12/08 08:54:17;;;;;;;52.20;27.15;;;5.80;99.90;;;;;;5040018;28;20501;-80
2023/12/08 08:56:43;;;;;;;26.20;12.82;;;5.50;99.90;;;;;;4996155;28;20021;-81
2023/12/08 08:59:09;;;;;;;23.02;12.77;;;5.40;99.90;;;;;;5046983;28;20029;-84
2023/12/08 09:01:35;;;;;;;23.17;12.90;;;5.80;99.90;;;;;;5055940;28;20038;-81
2023/12/08 09:04:01;;;;;;;22.45;13.50;;;6.00;99.90;;;;;;5058838;28;20113;-81
2023/12/08 09:06:28;;;;;;;25.95;13.52;;;4.70;99.90;;;;;;5059826;28;20099;-83
2023/12/08 09:08:56;;;;;;;24.90;13.65;;;5.90;99.90;;;;;;5056762;28;20048;-82
2023/12/08 09:11:22;;;;;;;24.45;13.75;;;5.00;99.90;;;;;;5025506;28;20029;-83
2023/12/08 09:13:48;;;;;;;28.98;15.18;;;5.80;99.90;;;;;;5047571;28;20033;-82
2023/12/08 09:16:36;;;;;;;25.55;14.18;;;4.90;99.90;;;;;;5049215;28;20043;-84
2023/12/08 09:19:05;;;;;;;25.15;13.68;;;6.80;99.90;;;;;;5055829;28;20052;-84
2023/12/08 09:21:31;;;;;;;25.98;13.93;;;7.30;99.90;;;;;;5053603;28;20025;-83
2023/12/08 09:24:00;;;;;;;25.77;13.80;;;5.60;99.90;;;;;;5035565;28;20043;-82
2023/12/08 09:26:39;;;;;;;;;;;;;;;;;;;;;
2023/12/08 09:29:05;;;;;;;26.30;13.70;;;5.60;99.90;;;;;;5042927;28;20085;-84
2023/12/08 09:31:31;;;;;;;24.45;13.18;;;5.50;99.90;;;;;;5019123;28;20490;-81
2023/12/08 09:33:58;;;;;;;27.25;13.27;;;7.20;99.90;;;;;;5055213;28;20077;-80
2023/12/08 09:36:24;;;;;;;32.13;15.15;;;5.10;99.90;;;;;;5035772;28;20163;-81
2023/12/08 09:38:50;;;;;;;28.50;15.02;;;5.90;99.90;;;;;;5028383;28;20025;-84
2023/12/08 09:41:17;;;;;;;29.05;13.60;;;7.70;99.90;;;;;;5037504;28;20059;-81
2023/12/08 09:44:12;;;;;;;22.65;12.73;;;5.40;99.90;;;;;;5047986;28;20040;-81
2023/12/08 09:46:54;;;;;;;24.50;13.35;;;5.80;99.90;;;;;;5049124;28;20029;-82
2023/12/08 09:49:30;;;;;;;26.95;12.52;;;4.30;99.90;;;;;;5047548;28;20506;-81
2023/12/08 09:51:56;;;;;;;24.05;13.38;;;5.80;99.90;;;;;;5040085;28;20029;-82
2023/12/08 09:54:28;;;;;;;25.90;13.40;;;5.80;99.90;;;;;;5048448;28;20009;-81
2023/12/08 09:57:00;;;;;;;24.48;12.77;;;5.90;99.90;;;;;;5048801;28;20029;-81
2023/12/08 09:59:29;;;;;;;26.15;13.65;;;6.20;99.90;;;;;;5054231;28;20029;-82
2023/12/08 10:01:56;;;;;;;22.15;12.57;;;;;;;;;;5053727;28;20079;-81
2023/12/08 10:04:26;;;;;;;21.40;12.63;;;5.90;99.90;;;;;;5040316;28;20034;-81
2023/12/08 10:06:54;;;;;;;24.38;12.90;;;6.50;99.90;;;;;;5054041;28;20038;-81
2023/12/08 10:09:22;;;;;;;24.75;13.73;;;6.00;99.90;;;;;;5038236;28;20013;-80
2023/12/08 10:11:50;;;;;;;25.88;13.65;;;;;;;;;;5052100;28;20049;-81
2023/12/08 10:14:29;;;;;;;24.63;12.77;;;6.10;99.90;;;;;;5060126;28;20018;-81
2023/12/08 10:16:59;;;;;;;41.47;13.88;;;;;;;;;;5049064;28;20029;-80
2023/12/08 10:19:26;;;;;;;26.90;12.80;;;6.10;99.90;;;;;;5050546;28;20076;-81
2023/12/08 10:22:03;;;;;;;28.08;13.07;;;5.60;99.90;;;;;;5050530;28;20995;-81
2023/12/08 10:24:30;;;;;;;24.45;12.35;;;6.10;99.90;;;;;;5064135;28;20017;-81
2023/12/08 10:27:02;;;;;;;32.42;16.33;;;6.30;99.90;;;;;;5050095;28;20025;-80
2023/12/08 10:29:34;;;;;;;26.55;13.05;;;6.10;99.90;;;;;;5037984;28;20028;-80
2023/12/08 10:32:04;;;;;;;19.33;11.32;;;6.00;99.90;;;;;;5037922;28;20025;-80
2023/12/08 10:34:30;;;;;;;20.98;11.40;;;6.20;99.90;;;;;;5050864;28;20488;-81
2023/12/08 10:36:57;;;;;;;19.70;11.60;;;7.80;99.90;;;;;;5052133;28;20029;-81
2023/12/08 10:39:24;;;;;;;17.67;10.70;;;6.50;99.90;;;;;;5059864;28;20001;-84
2023/12/08 10:41:55;;;;;;;15.73;10.65;;;6.40;99.90;;;;;;5025787;28;20033;-80
2023/12/08 10:44:22;;;;;;;26.13;15.27;;;5.90;99.90;;;;;;5057253;28;20028;-82
2023/12/08 10:46:51;;;;;;;25.35;14.85;;;7.20;99.90;;;;;;5040032;28;20037;-80
2023/12/08 10:49:21;;;;;;;18.83;10.70;;;6.50;99.90;;;;;;5041347;28;20021;-82
2023/12/08 10:51:48;;;;;;;16.65;9.98;;;6.70;99.90;;;;;;5048806;28;20030;-80
2023/12/08 10:54:16;;;;;;;16.08;9.82;;;6.40;99.90;;;;;;5048059;28;20122;-80
2023/12/08 10:56:43;;;;;;;17.80;9.50;;;6.70;99.90;;;;;;5026309;28;20030;-81
2023/12/08 10:59:11;;;;;;;16.00;8.93;;;7.50;99.90;;;;;;5051037;28;20061;-80
2023/12/08 11:01:38;;;;;;;15.07;10.00;;;6.90;99.90;;;;;;5042245;28;20030;-79
2023/12/08 11:04:10;;;;;;;18.17;10.98;;;8.30;99.90;;;;;;5019966;28;20022;-79
2023/12/08 11:06:41;;;;;;;16.77;11.10;;;8.10;99.90;;;;;;5038359;28;20029;-79
2023/12/08 11:09:12;;;;;;;17.60;10.88;;;6.80;99.90;;;;;;5041551;28;20041;-80
2023/12/08 11:11:47;;;;;;;19.38;11.10;;;7.80;99.90;;;;;;5023572;28;20021;-79
2023/12/08 11:14:19;;;;;;;16.15;10.50;;;6.90;99.90;;;;;;5016851;28;20507;-78
2023/12/08 11:16:57;;;;;;;18.70;11.07;;;8.30;99.90;;;;;;5042654;28;20471;-80
2023/12/08 11:19:24;;;;;;;19.33;11.35;;;6.50;99.90;;;;;;5022095;28;20025;-80
2023/12/08 11:21:51;;;;;;;19.02;11.52;;;8.00;99.90;;;;;;5050367;28;20032;-79
2023/12/08 11:24:21;;;;;;;19.63;11.48;;;7.90;99.90;;;;;;5017346;28;20021;-79
2023/12/08 11:27:33;;;;;;;19.45;11.57;;;6.80;99.90;;;;;;5047417;28;20056;-79
2023/12/08 11:30:10;;;;;;;16.83;10.43;;;6.80;99.90;;;;;;4995157;28;20049;-79
2023/12/08 11:32:51;;;;;;;17.35;10.68;;;6.90;99.90;;;;;;5001155;28;20483;-79
2023/12/08 11:35:17;;;;;;;18.60;11.85;;;6.90;99.90;;;;;;5016859;28;20549;-79
2023/12/08 11:37:45;;;;;;;28.17;15.75;;;7.00;99.90;;;;;;5036012;28;20033;-78
2023/12/08 11:40:11;;;;;;;24.67;14.32;;;8.40;99.90;;;;;;5038118;28;20031;-80
2023/12/08 11:42:44;;;;;;;17.65;11.35;;;6.40;99.90;;;;;;5026449;28;20025;-79
2023/12/08 11:45:10;;;;;;;19.52;11.85;;;7.10;99.90;;;;;;5018895;28;20107;-80
2023/12/08 11:47:37;;;;;;;21.02;12.13;;;7.40;99.90;;;;;;5024564;28;20022;-78
2023/12/08 11:50:05;;;;;;;16.40;10.82;;;7.70;99.90;;;;;;5051062;28;20029;-78
2023/12/08 11:52:37;;;;;;;16.45;10.10;;;6.70;99.90;;;;;;5045389;28;20077;-79
2023/12/08 11:55:20;;;;;;;16.40;9.43;;;7.90;99.90;;;;;;5033134;28;20068;-81
2023/12/08 11:58:01;;;;;;;16.95;9.80;;;7.20;99.90;;;;;;5020296;28;20430;-78
2023/12/08 12:00:28;;;;;;;28.02;11.15;;;6.70;99.90;;;;;;5038521;28;20036;-80
2023/12/08 12:02:56;;;;;;;36.67;12.10;;;7.20;99.90;;;;;;5039055;28;20029;-80
2023/12/08 12:05:22;;;;;;;25.95;12.65;;;7.70;99.90;;;;;;5048177;28;20022;-80
2023/12/08 12:07:54;;;;;;;22.00;11.93;;;7.30;99.90;;;;;;5052074;28;20033;-79
2023/12/08 12:10:29;;;;;;;20.10;11.95;;;7.30;99.90;;;;;;5052153;28;20025;-79
2023/12/08 12:13:01;;;;;;;22.48;12.00;;;7.30;99.90;;;;;;5041253;28;20028;-79
2023/12/08 12:15:30;;;;;;;20.25;10.48;;;7.40;99.90;;;;;;5058451;28;20093;-81
2023/12/08 12:18:00;;;;;;;15.55;8.98;;;7.40;99.90;;;;;;5047893;28;20033;-79
2023/12/08 12:20:28;;;;;;;15.63;9.02;;;7.40;99.90;;;;;;5052199;28;20077;-79
2023/12/08 12:22:54;;;;;;;13.13;7.80;;;7.40;99.90;;;;;;5035435;28;20034;-82
2023/12/08 12:25:20;;;;;;;11.93;6.72;;;7.50;99.90;;;;;;5032785;28;20036;-80
2023/12/08 12:27:49;;;;;;;10.80;7.15;;;8.00;99.90;;;;;;5042318;28;20025;-80
2023/12/08 12:30:17;;;;;;;14.35;8.00;;;7.60;99.90;;;;;;5053908;28;20017;-80
2023/12/08 12:32:51;;;;;;;10.40;6.95;;;7.60;99.90;;;;;;5041972;28;20018;-82
2023/12/08 12:35:17;;;;;;;10.57;7.10;;;7.90;99.90;;;;;;5053784;28;20031;-79
2023/12/08 12:37:44;;;;;;;10.05;7.20;;;7.70;99.90;;;;;;5041725;28;20025;-79
2023/12/08 12:40:10;;;;;;;9.95;6.57;;;7.70;99.90;;;;;;5056477;28;20024;-80
2023/12/08 12:42:40;;;;;;;10.05;6.85;;;7.60;99.90;;;;;;5040475;28;20026;-79
2023/12/08 12:45:07;;;;;;;9.70;6.60;;;7.70;99.90;;;;;;5048976;28;20079;-80
2023/12/08 12:47:33;;;;;;;21.52;14.15;;;7.70;99.90;;;;;;5041134;28;20354;-80
2023/12/08 12:50:09;;;;;;;14.07;8.25;;;7.70;99.90;;;;;;5055104;28;20025;-83
2023/12/08 12:52:38;;;;;;;13.05;7.90;;;8.00;99.90;;;;;;5039312;28;20021;-81
2023/12/08 12:55:25;;;;;;;16.17;8.30;;;7.40;99.90;;;;;;5050097;28;20108;-78